Tariffville, Connecticut
Current Conditions -  °F | °C
As of 12:51 PM on Thursday 30 Oct 2014 (Local Time) from KBDL Reporting Station
Broken Clouds Broken Clouds  
Wind Chill: 56°   Ceiling: 4900
Heat Index: 56°   Visibility: 10mi
Dew Point: 34°   Wind: 14mph
Humidity: 44%   Direction: 300°WNW
Pressure: 29.95"   Gusts: NA
Location:  41.91°N, 72.77°W
Report Text: KBDL 301651Z 30012KT 10SM BKN049 13/01 A2995 RMK AO2 SLP142 T01330011
Loading
Personal Weather Stations






























Interactive Weather Map
Tropical Storm Tracking
New forecast layout! Learn more

10-Day Weather Forecast

Advertisements
Track Severe Weather on mobile